createdAt,value
2022-08-19T00:01:37.741Z,71.65
2022-08-19T00:04:04.465Z,71.65
2022-08-19T00:06:31.323Z,71.75
2022-08-19T00:08:53.208Z,71.70
2022-08-19T00:11:25.295Z,71.52
2022-08-19T00:13:49.466Z,71.69
2022-08-19T00:16:11.407Z,71.74
2022-08-19T00:18:34.907Z,71.70
2022-08-19T00:20:56.756Z,71.79
2022-08-19T00:23:18.650Z,71.56
2022-08-19T00:25:41.424Z,71.84
2022-08-19T00:28:05.388Z,71.78
2022-08-19T00:30:28.846Z,71.94
2022-08-19T00:32:51.506Z,72.10
2022-08-19T00:35:13.891Z,72.09
2022-08-19T00:37:36.212Z,72.14
2022-08-19T00:39:58.256Z,72.06
2022-08-19T00:42:22.771Z,72.37
2022-08-19T00:44:44.933Z,72.12
2022-08-19T00:47:07.745Z,72.24
2022-08-19T00:49:51.695Z,72.25
2022-08-19T00:52:25.128Z,72.29
2022-08-19T00:54:52.519Z,72.24
2022-08-19T00:57:22.006Z,72.42
2022-08-19T00:59:58.799Z,72.32
2022-08-19T01:02:25.202Z,72.55
2022-08-19T01:04:47.313Z,72.47
2022-08-19T01:07:09.467Z,72.53
2022-08-19T01:09:37.246Z,72.41
2022-08-19T01:11:59.158Z,72.44
2022-08-19T01:14:20.983Z,72.34
2022-08-19T01:16:44.806Z,72.41
2022-08-19T01:19:44.265Z,72.39
2022-08-19T01:22:27.659Z,72.60
2022-08-19T01:24:53.281Z,72.39
2022-08-19T01:27:18.516Z,72.64
2022-08-19T01:29:45.827Z,72.44
2022-08-19T01:32:33.513Z,72.47
2022-08-19T01:34:55.488Z,72.52
2022-08-19T01:37:27.173Z,72.58
2022-08-19T01:39:49.261Z,72.45
2022-08-19T01:42:12.958Z,72.38
2022-08-19T01:44:37.266Z,72.63
2022-08-19T01:46:59.321Z,72.53
2022-08-19T01:49:26.318Z,72.48
2022-08-19T01:51:50.567Z,72.61
2022-08-19T01:54:27.669Z,72.69
2022-08-19T01:56:53.529Z,72.75
2022-08-19T01:59:24.050Z,72.94
2022-08-19T02:01:46.419Z,72.89
2022-08-19T02:04:08.666Z,73.09
2022-08-19T02:06:30.794Z,72.82
2022-08-19T02:08:52.701Z,72.94
2022-08-19T02:11:28.694Z,72.92
2022-08-19T02:13:51.075Z,72.90
2022-08-19T02:16:12.980Z,73.26
2022-08-19T02:18:34.915Z,73.14
2022-08-19T02:20:56.992Z,73.08
2022-08-19T02:23:19.052Z,73.24
2022-08-19T02:25:43.168Z,73.20
2022-08-19T02:28:06.064Z,73.38
2022-08-19T02:30:28.114Z,73.35
2022-08-19T02:32:49.968Z,73.16
2022-08-19T02:35:14.556Z,73.60
2022-08-19T02:37:55.394Z,73.42
2022-08-19T02:40:18.841Z,73.61
2022-08-19T02:42:41.941Z,73.53
2022-08-19T02:45:05.964Z,73.73
2022-08-19T02:47:28.134Z,73.70
2022-08-19T02:49:50.858Z,73.57
2022-08-19T02:52:13.161Z,73.63
2022-08-19T02:54:35.387Z,73.78
2022-08-19T02:56:57.250Z,73.64
2022-08-19T02:59:20.338Z,73.91
2022-08-19T03:01:46.611Z,74.10
2022-08-19T03:04:13.984Z,73.80
2022-08-19T03:06:42.362Z,73.87
2022-08-19T03:09:04.424Z,73.96
2022-08-19T03:11:32.013Z,74.10
2022-08-19T03:13:55.425Z,73.94
2022-08-19T03:16:19.316Z,74.01
2022-08-19T03:18:41.298Z,73.93
2022-08-19T03:21:04.325Z,74.20
2022-08-19T03:23:26.357Z,74.00
2022-08-19T03:25:58.244Z,74.12
2022-08-19T03:28:34.112Z,74.08
2022-08-19T03:31:45.158Z,74.40
2022-08-19T03:33:53.294Z,74.58
2022-08-19T03:36:23.548Z,74.80
2022-08-19T03:38:56.259Z,74.96
2022-08-19T03:41:26.775Z,75.18
2022-08-19T03:44:06.693Z,75.09
2022-08-19T03:46:35.461Z,75.21
2022-08-19T03:49:00.686Z,75.31
2022-08-19T03:51:35.929Z,75.42
2022-08-19T03:54:01.586Z,75.27
2022-08-19T03:56:26.375Z,75.27
2022-08-19T03:58:49.780Z,75.42
2022-08-19T04:01:18.743Z,75.29
2022-08-19T04:03:41.720Z,75.23
2022-08-19T04:06:22.388Z,75.54
2022-08-19T04:08:46.975Z,75.45
2022-08-19T04:11:10.365Z,75.25
2022-08-19T04:13:32.247Z,75.15
2022-08-19T04:15:54.395Z,75.13
2022-08-19T04:18:16.432Z,75.30
2022-08-19T04:20:56.757Z,75.48
2022-08-19T04:23:19.880Z,75.36
2022-08-19T04:25:45.143Z,75.26
2022-08-19T04:28:08.473Z,75.11
2022-08-19T04:30:30.281Z,75.19
2022-08-19T04:32:52.283Z,75.45
2022-08-19T04:35:16.747Z,75.74
2022-08-19T04:37:39.652Z,76.17
2022-08-19T04:40:19.821Z,76.44
2022-08-19T04:42:41.780Z,76.48
2022-08-19T04:45:06.463Z,76.74
2022-08-19T04:47:47.603Z,77.33
2022-08-19T04:50:15.792Z,77.74
2022-08-19T04:52:43.841Z,78.06
2022-08-19T04:55:07.515Z,78.09
2022-08-19T04:57:29.671Z,78.26
2022-08-19T04:59:56.844Z,78.48
2022-08-19T05:02:18.733Z,78.54
2022-08-19T05:04:40.839Z,78.74
2022-08-19T05:07:03.125Z,78.74
2022-08-19T05:09:24.959Z,79.00
2022-08-19T05:11:46.806Z,79.00
2022-08-19T05:14:11.093Z,79.19
2022-08-19T05:16:33.270Z,78.75
2022-08-19T05:19:15.243Z,78.79
2022-08-19T05:21:57.118Z,79.04
2022-08-19T05:24:20.832Z,79.09
2022-08-19T05:26:47.812Z,78.90
2022-08-19T05:29:11.360Z,78.88
2022-08-19T05:31:33.705Z,78.92
2022-08-19T05:33:56.981Z,79.14
2022-08-19T05:36:20.961Z,78.96
2022-08-19T05:38:42.785Z,78.95
2022-08-19T05:41:14.302Z,79.28
2022-08-19T05:43:37.059Z,79.14
2022-08-19T05:45:59.341Z,79.15
2022-08-19T05:48:21.498Z,79.11
2022-08-19T05:50:43.468Z,79.50
2022-08-19T05:53:06.032Z,79.96
2022-08-19T05:55:27.885Z,80.26
2022-08-19T05:57:49.782Z,80.31
2022-08-19T06:00:13.411Z,80.42
2022-08-19T06:02:36.428Z,80.50
2022-08-19T06:04:58.626Z,80.65
2022-08-19T06:07:20.867Z,80.80
2022-08-19T06:09:43.769Z,80.68
2022-08-19T06:12:22.143Z,81.00
2022-08-19T06:14:44.031Z,80.65
2022-08-19T06:17:07.239Z,80.78
2022-08-19T06:19:31.942Z,80.35
2022-08-19T06:21:54.524Z,80.25
2022-08-19T06:24:22.056Z,79.86
2022-08-19T06:29:23.864Z,79.83
2022-08-19T06:31:52.964Z,79.54
2022-08-19T06:34:14.914Z,79.21
2022-08-19T06:36:42.891Z,78.86
2022-08-19T06:39:27.515Z,78.78
2022-08-19T06:41:58.166Z,78.52
2022-08-19T06:44:25.830Z,78.75
2022-08-19T06:46:54.559Z,78.53
2022-08-19T06:49:18.486Z,78.52
2022-08-19T06:51:44.615Z,78.44
2022-08-19T06:54:07.249Z,77.95
2022-08-19T06:56:42.317Z,77.35
2022-08-19T06:59:12.594Z,77.16
2022-08-19T07:01:47.657Z,76.70
2022-08-19T07:04:12.073Z,76.22
2022-08-19T07:06:44.119Z,75.83
2022-08-19T07:09:09.184Z,75.82
2022-08-19T07:11:31.980Z,75.50
2022-08-19T07:13:56.409Z,75.10
2022-08-19T07:16:29.406Z,75.07
2022-08-19T07:18:52.437Z,75.04
2022-08-19T07:21:25.486Z,74.43
2022-08-19T07:23:52.873Z,74.23
2022-08-19T07:26:27.843Z,74.11
2022-08-19T07:28:51.531Z,73.82
2022-08-19T07:31:22.753Z,73.33
2022-08-19T07:33:48.425Z,73.22
2022-08-19T07:36:13.547Z,73.07
2022-08-19T07:38:35.869Z,72.81
2022-08-19T07:40:57.949Z,71.27
2022-08-19T07:43:21.585Z,71.25
2022-08-19T07:45:46.479Z,70.87
2022-08-19T07:48:08.444Z,70.33
2022-08-19T07:50:30.757Z,70.27
2022-08-19T07:52:52.833Z,69.81
2022-08-19T07:55:42.262Z,69.47
2022-08-19T07:57:56.968Z,68.88
2022-08-19T08:00:23.144Z,68.37
2022-08-19T08:02:46.784Z,68.09
2022-08-19T08:05:29.187Z,67.68
2022-08-19T08:08:09.623Z,68.22
2022-08-19T08:10:31.718Z,67.96
2022-08-19T08:13:09.103Z,66.80
2022-08-19T08:15:33.215Z,67.17
2022-08-19T08:17:55.156Z,67.04
2022-08-19T08:20:18.036Z,67.16
2022-08-19T08:23:04.375Z,66.71
2022-08-19T08:25:26.489Z,65.99
2022-08-19T08:27:48.822Z,65.74
2022-08-19T08:30:24.651Z,65.12
2022-08-19T08:32:47.143Z,64.35
2022-08-19T08:35:23.665Z,63.88
2022-08-19T08:37:49.859Z,63.23
2022-08-19T08:40:52.391Z,64.21
2022-08-19T08:43:37.069Z,63.46
2022-08-19T08:46:12.411Z,62.49
2022-08-19T08:49:42.583Z,60.91
2022-08-19T08:52:14.859Z,61.97
2022-08-19T08:54:49.116Z,61.31
2022-08-19T08:57:28.950Z,61.25
2022-08-19T09:00:06.950Z,60.73
2022-08-19T09:02:43.553Z,59.44
2022-08-19T09:05:10.353Z,59.42
2022-08-19T09:08:19.461Z,59.97
2022-08-19T09:10:55.385Z,59.11
2022-08-19T09:13:48.258Z,58.33
2022-08-19T09:16:27.977Z,57.99
2022-08-19T09:19:07.764Z,57.63
2022-08-19T09:21:33.379Z,56.71
2022-08-19T09:23:56.452Z,56.94
2022-08-19T09:26:23.901Z,56.48
2022-08-19T09:28:59.164Z,56.65
2022-08-19T09:31:26.832Z,55.87
2022-08-19T09:33:52.348Z,55.98
2022-08-19T09:36:21.740Z,56.04
2022-08-19T09:38:57.424Z,56.19
2022-08-19T09:41:23.927Z,56.34
2022-08-19T09:43:52.938Z,56.90
2022-08-19T09:46:18.397Z,56.77
2022-08-19T09:48:42.671Z,57.01
2022-08-19T09:51:18.308Z,55.60
2022-08-19T09:53:46.106Z,56.57
2022-08-19T09:56:08.331Z,56.72
2022-08-19T09:58:32.569Z,57.11
2022-08-19T10:01:00.660Z,57.19
2022-08-19T10:03:25.393Z,56.81
2022-08-19T10:05:55.205Z,55.63
2022-08-19T10:08:31.348Z,55.54
2022-08-19T10:10:55.878Z,56.42
2022-08-19T10:13:26.038Z,55.43
2022-08-19T10:15:49.260Z,54.61
2022-08-19T10:18:12.631Z,54.80
2022-08-19T10:20:36.663Z,54.45
2022-08-19T10:23:00.850Z,55.15
2022-08-19T10:25:23.688Z,55.37
2022-08-19T10:27:51.230Z,55.69
2022-08-19T10:30:14.606Z,55.72
2022-08-19T10:32:36.805Z,56.13
2022-08-19T10:34:58.664Z,56.08
2022-08-19T10:37:29.182Z,56.44
2022-08-19T10:39:53.633Z,56.30
2022-08-19T10:42:17.102Z,55.75
2022-08-19T10:44:38.948Z,55.90
2022-08-19T10:47:01.003Z,55.99
2022-08-19T10:49:25.127Z,56.49
2022-08-19T10:52:05.542Z,55.71
2022-08-19T10:54:52.800Z,55.33
2022-08-19T10:57:16.646Z,53.66
2022-08-19T10:59:40.140Z,53.56
2022-08-19T11:02:05.577Z,52.93
2022-08-19T11:04:28.923Z,52.85
2022-08-19T11:06:51.808Z,52.22
2022-08-19T11:09:16.318Z,52.70
2022-08-19T11:11:42.523Z,52.86
2022-08-19T11:14:04.442Z,52.52
2022-08-19T11:16:28.754Z,53.22
2022-08-19T11:18:59.400Z,53.12
2022-08-19T11:21:32.865Z,53.10
2022-08-19T11:23:59.085Z,53.76
2022-08-19T11:26:23.912Z,53.73
2022-08-19T11:28:46.694Z,54.37
2022-08-19T11:31:20.156Z,54.69
2022-08-19T11:33:42.671Z,54.43
2022-08-19T11:36:10.837Z,54.43
2022-08-19T11:38:37.648Z,54.77
2022-08-19T11:41:08.312Z,55.55
2022-08-19T11:43:36.803Z,54.84
2022-08-19T11:46:00.305Z,54.44
2022-08-19T11:48:23.493Z,54.92
2022-08-19T11:50:45.416Z,54.87
2022-08-19T11:53:07.226Z,54.08
2022-08-19T11:55:31.912Z,53.05
2022-08-19T11:57:55.557Z,52.35
2022-08-19T12:00:17.875Z,51.88
2022-08-19T12:02:41.055Z,51.29
2022-08-19T12:05:04.932Z,51.52
2022-08-19T12:07:28.000Z,51.82
2022-08-19T12:09:49.997Z,52.00
2022-08-19T12:12:13.022Z,51.59
2022-08-19T12:14:35.551Z,50.90
2022-08-19T12:16:57.542Z,50.29
2022-08-19T12:19:22.160Z,50.80
2022-08-19T12:21:44.654Z,51.11
2022-08-19T12:24:07.761Z,51.20
2022-08-19T12:26:32.456Z,50.51
2022-08-19T12:28:55.492Z,50.40
2022-08-19T12:31:18.950Z,50.12
2022-08-19T12:33:42.904Z,50.77
2022-08-19T12:36:08.706Z,50.77
2022-08-19T12:38:31.006Z,51.06
2022-08-19T12:40:55.966Z,51.39
2022-08-19T12:43:21.417Z,51.08
2022-08-19T12:45:45.058Z,50.25
2022-08-19T12:48:33.747Z,49.89
2022-08-19T12:50:53.222Z,50.70
2022-08-19T12:53:16.122Z,50.28
2022-08-19T12:55:38.284Z,50.07
2022-08-19T12:58:02.397Z,49.58
2022-08-19T13:00:24.670Z,50.45
2022-08-19T13:02:51.575Z,49.85
2022-08-19T13:05:20.818Z,49.62
2022-08-19T13:07:44.986Z,49.66
2022-08-19T13:10:13.372Z,49.62
2022-08-19T13:12:36.167Z,49.55
2022-08-19T13:14:58.109Z,49.63
2022-08-19T13:17:21.728Z,49.10
2022-08-19T13:19:43.666Z,49.72
2022-08-19T13:22:13.207Z,49.81
2022-08-19T13:24:37.988Z,49.94
2022-08-19T13:27:01.790Z,49.55
2022-08-19T13:29:43.044Z,49.29
2022-08-19T13:32:23.566Z,49.47
2022-08-19T13:34:47.584Z,49.71
2022-08-19T13:37:09.774Z,48.54
2022-08-19T13:39:34.393Z,48.69
2022-08-19T13:41:57.025Z,49.19
2022-08-19T13:44:20.566Z,48.69
2022-08-19T13:46:46.468Z,48.83
2022-08-19T13:49:08.714Z,47.98
2022-08-19T13:51:30.727Z,47.53
2022-08-19T13:53:52.886Z,48.19
2022-08-19T13:56:25.403Z,48.69
2022-08-19T13:58:47.936Z,49.15
2022-08-19T14:01:11.096Z,48.53
2022-08-19T14:03:34.884Z,48.98
2022-08-19T14:05:57.424Z,49.93
2022-08-19T14:08:19.859Z,50.38
2022-08-19T14:10:43.540Z,50.59
2022-08-19T14:13:06.009Z,51.24
2022-08-19T14:15:29.172Z,51.47
2022-08-19T14:17:51.382Z,51.23
2022-08-19T14:20:17.716Z,51.45
2022-08-19T14:22:42.496Z,51.66
2022-08-19T14:25:17.045Z,51.85
2022-08-19T14:27:41.872Z,51.83
2022-08-19T14:30:07.883Z,52.49
2022-08-19T14:32:30.012Z,52.85
2022-08-19T14:34:52.590Z,52.90
2022-08-19T14:37:16.161Z,53.35
2022-08-19T14:39:39.255Z,53.12
2022-08-19T14:42:01.307Z,53.28
2022-08-19T14:44:23.687Z,53.33
2022-08-19T14:46:49.585Z,53.68
2022-08-19T14:49:11.647Z,53.35
2022-08-19T14:51:33.989Z,52.96
2022-08-19T14:53:56.225Z,53.08
2022-08-19T14:56:23.089Z,53.13
2022-08-19T14:58:46.285Z,53.91
2022-08-19T15:01:09.508Z,53.52
2022-08-19T15:03:32.915Z,53.53
2022-08-19T15:05:55.423Z,53.63
2022-08-19T15:08:17.342Z,54.15
2022-08-19T15:10:40.515Z,54.68
2022-08-19T15:13:02.667Z,54.98
2022-08-19T15:15:24.733Z,55.38
2022-08-19T15:17:47.498Z,55.66
2022-08-19T15:20:11.811Z,55.62
2022-08-19T15:22:35.169Z,55.55
2022-08-19T15:24:57.109Z,55.46
2022-08-19T15:27:18.945Z,55.35
2022-08-19T15:29:41.098Z,55.31
2022-08-19T15:32:03.616Z,55.55
2022-08-19T15:34:26.533Z,55.67
2022-08-19T15:36:48.493Z,55.82
2022-08-19T15:39:10.985Z,56.36
2022-08-19T15:41:33.202Z,56.51
2022-08-19T15:44:09.097Z,56.55
2022-08-19T15:46:34.916Z,57.62
2022-08-19T15:49:00.008Z,58.86
2022-08-19T15:51:23.486Z,58.71
2022-08-19T15:53:45.451Z,59.01
2022-08-19T15:56:07.296Z,58.97
2022-08-19T15:58:47.604Z,59.24
2022-08-19T16:01:47.936Z,59.24
2022-08-19T16:04:29.723Z,60.29
2022-08-19T16:06:56.505Z,61.28
2022-08-19T16:09:26.636Z,61.75
2022-08-19T16:11:56.512Z,62.00
2022-08-19T16:14:20.353Z,62.01
2022-08-19T16:16:46.871Z,62.03
2022-08-19T16:19:11.813Z,62.32
2022-08-19T16:21:36.229Z,62.38
2022-08-19T16:24:02.855Z,62.09
2022-08-19T16:26:28.414Z,62.45
2022-08-19T16:28:51.276Z,62.23
2022-08-19T16:31:14.982Z,62.40
2022-08-19T16:33:37.448Z,62.70
2022-08-19T16:36:07.015Z,62.79
2022-08-19T16:38:29.927Z,62.79
2022-08-19T16:40:54.948Z,63.08
2022-08-19T16:43:16.762Z,63.25
2022-08-19T16:45:38.617Z,63.78
2022-08-19T16:48:06.076Z,64.28
2022-08-19T16:50:47.837Z,64.97
2022-08-19T16:53:09.922Z,65.34
2022-08-19T16:55:31.704Z,66.02
2022-08-19T16:57:53.634Z,66.17
2022-08-19T17:00:16.766Z,66.51
2022-08-19T17:02:39.660Z,66.98
2022-08-19T17:05:01.792Z,67.28
2022-08-19T17:07:23.765Z,68.18
2022-08-19T17:09:45.760Z,68.04
2022-08-19T17:12:08.814Z,68.03
2022-08-19T17:14:30.630Z,68.52
2022-08-19T17:16:52.518Z,68.19
2022-08-19T17:19:14.801Z,68.36
2022-08-19T17:21:40.688Z,68.85
2022-08-19T17:24:08.618Z,68.99
2022-08-19T17:26:31.789Z,68.67
2022-08-19T17:28:56.996Z,69.06
2022-08-19T17:31:23.689Z,69.37
2022-08-19T17:33:48.769Z,69.04
2022-08-19T17:36:11.808Z,69.09
2022-08-19T17:38:35.404Z,68.80
2022-08-19T17:41:04.430Z,68.88
2022-08-19T17:43:32.254Z,68.95
2022-08-19T17:45:55.492Z,69.11
2022-08-19T17:48:17.782Z,69.10
2022-08-19T17:50:40.442Z,69.16
2022-08-19T17:53:04.036Z,69.44
2022-08-19T17:55:26.361Z,69.63
2022-08-19T17:57:48.231Z,69.58
2022-08-19T18:00:15.335Z,69.52
2022-08-19T18:02:56.149Z,70.13
2022-08-19T18:05:22.856Z,70.56
2022-08-19T18:07:44.932Z,70.40
2022-08-19T18:10:07.638Z,70.95
2022-08-19T18:12:29.562Z,70.56
2022-08-19T18:14:51.524Z,71.02
2022-08-19T18:17:19.086Z,71.44
2022-08-19T18:19:44.008Z,71.89
2022-08-19T18:22:06.708Z,72.02
2022-08-19T18:24:28.722Z,72.24
2022-08-19T18:26:50.571Z,72.45
2022-08-19T18:29:13.565Z,72.27
2022-08-19T18:31:38.675Z,72.42
2022-08-19T18:34:00.567Z,72.92
2022-08-19T18:36:50.209Z,72.39
2022-08-19T18:39:24.095Z,72.67
2022-08-19T18:42:05.281Z,72.78
2022-08-19T18:44:45.550Z,72.89
2022-08-19T18:47:25.910Z,72.99
2022-08-19T18:49:51.213Z,72.88
2022-08-19T18:52:13.094Z,73.74
2022-08-19T18:54:35.736Z,73.88
2022-08-19T18:56:57.782Z,73.71
2022-08-19T18:59:21.228Z,74.37
2022-08-19T19:01:50.950Z,74.13
2022-08-19T19:04:14.015Z,74.64
2022-08-19T19:06:40.423Z,74.32
2022-08-19T19:09:02.406Z,74.72
2022-08-19T19:11:29.562Z,74.86
2022-08-19T19:13:51.977Z,74.83
2022-08-19T19:16:13.807Z,74.97
2022-08-19T19:18:35.714Z,74.95
2022-08-19T19:20:59.270Z,75.34
2022-08-19T19:23:21.414Z,75.60
2022-08-19T19:25:50.946Z,75.60
2022-08-19T19:28:16.049Z,75.83
2022-08-19T19:30:39.096Z,76.39
2022-08-19T19:33:02.081Z,76.37
2022-08-19T19:35:23.910Z,76.58
2022-08-19T19:37:51.814Z,76.82
2022-08-19T19:40:13.763Z,76.85
2022-08-19T19:42:35.827Z,77.03
2022-08-19T19:44:58.690Z,76.74
2022-08-19T19:47:21.418Z,76.85
2022-08-19T19:50:03.958Z,77.00
2022-08-19T19:52:26.652Z,77.25
2022-08-19T19:54:48.761Z,77.31
2022-08-19T19:57:11.369Z,77.48
2022-08-19T19:59:33.508Z,77.83
2022-08-19T20:01:56.615Z,78.16
2022-08-19T20:04:21.898Z,77.82
2022-08-19T20:06:45.739Z,78.16
2022-08-19T20:09:08.250Z,78.35
2022-08-19T20:11:32.879Z,78.31
2022-08-19T20:13:54.704Z,78.71
2022-08-19T20:16:18.065Z,78.82
2022-08-19T20:18:40.227Z,78.70
2022-08-19T20:21:02.127Z,78.54
2022-08-19T20:23:24.046Z,78.38
2022-08-19T20:25:46.279Z,78.60
2022-08-19T20:28:09.187Z,78.52
2022-08-19T20:30:33.078Z,78.26
2022-08-19T20:32:56.514Z,78.47
2022-08-19T20:35:21.442Z,78.53
2022-08-19T20:37:43.442Z,78.80
2022-08-19T20:40:09.752Z,78.82
2022-08-19T20:42:31.707Z,78.71
2022-08-19T20:44:53.787Z,79.02
2022-08-19T20:47:16.140Z,79.22
2022-08-19T20:49:38.341Z,79.25
2022-08-19T20:52:00.503Z,79.29
2022-08-19T20:54:22.471Z,79.29
2022-08-19T20:56:44.490Z,79.42
2022-08-19T20:59:10.297Z,79.51
2022-08-19T21:01:32.489Z,79.64
2022-08-19T21:03:54.279Z,79.38
2022-08-19T21:06:16.247Z,79.30
2022-08-19T21:08:39.563Z,79.38
2022-08-19T21:11:03.013Z,79.37
2022-08-19T21:13:25.844Z,79.15
2022-08-19T21:15:48.723Z,79.34
2022-08-19T21:18:12.813Z,79.50
2022-08-19T21:20:34.716Z,79.43
2022-08-19T21:22:56.606Z,79.31
2022-08-19T21:25:18.664Z,79.10
2022-08-19T21:27:40.529Z,79.12
2022-08-19T21:30:07.130Z,79.27
2022-08-19T21:32:29.673Z,79.34
2022-08-19T21:34:52.813Z,79.20
2022-08-19T21:37:18.991Z,79.00
2022-08-19T21:39:48.376Z,78.95
2022-08-19T21:42:12.900Z,78.84
2022-08-19T21:44:37.622Z,78.96
2022-08-19T21:46:59.519Z,79.30
2022-08-19T21:49:22.208Z,79.14
2022-08-19T21:51:44.189Z,79.38
2022-08-19T21:54:06.097Z,79.25
2022-08-19T21:56:27.920Z,79.37
2022-08-19T21:58:50.042Z,79.34
2022-08-19T22:01:12.299Z,79.07
2022-08-19T22:03:37.821Z,79.22
2022-08-19T22:05:59.884Z,79.39
2022-08-19T22:08:23.071Z,79.50
2022-08-19T22:10:45.280Z,79.50
2022-08-19T22:13:09.501Z,79.32
2022-08-19T22:15:32.536Z,79.54
2022-08-19T22:17:54.887Z,79.31
2022-08-19T22:20:22.747Z,79.72
2022-08-19T22:22:57.709Z,79.54
2022-08-19T22:25:30.104Z,79.23
2022-08-19T22:27:56.872Z,79.39
2022-08-19T22:30:24.481Z,79.43
2022-08-19T22:33:01.345Z,79.56
2022-08-19T22:35:25.617Z,79.34
2022-08-19T22:37:48.389Z,79.70
2022-08-19T22:40:13.064Z,79.32
2022-08-19T22:42:35.081Z,79.39
2022-08-19T22:44:58.927Z,79.47
2022-08-19T22:47:20.759Z,79.39
2022-08-19T22:49:42.634Z,79.58
2022-08-19T22:52:19.910Z,79.76
2022-08-19T22:54:41.832Z,79.74
2022-08-19T22:57:04.321Z,79.71
2022-08-19T22:59:26.293Z,79.83
2022-08-19T23:01:48.295Z,79.83
2022-08-19T23:04:11.051Z,79.82
2022-08-19T23:06:35.051Z,79.59
2022-08-19T23:08:59.159Z,79.82
2022-08-19T23:11:21.478Z,79.80
2022-08-19T23:13:43.406Z,80.08
2022-08-19T23:16:06.074Z,79.70
2022-08-19T23:18:29.797Z,79.86
2022-08-19T23:20:54.581Z,79.84
2022-08-19T23:23:19.747Z,79.90
2022-08-19T23:25:41.751Z,79.99
2022-08-19T23:28:24.940Z,79.79
2022-08-19T23:30:49.996Z,79.80
2022-08-19T23:33:24.829Z,79.77
2022-08-19T23:35:46.634Z,79.94
2022-08-19T23:38:10.036Z,80.01
2022-08-19T23:40:31.914Z,80.08
2022-08-19T23:42:54.736Z,80.06
2022-08-19T23:45:23.907Z,79.86
2022-08-19T23:47:46.719Z,80.24
2022-08-19T23:50:09.252Z,80.18
2022-08-19T23:52:41.907Z,80.31
2022-08-19T23:55:07.395Z,80.56
2022-08-19T23:57:29.192Z,80.56
2022-08-19T23:59:50.981Z,80.38
